Time;durP1;ratioP1;P1;durP2;ratioP2;P2;SDS_P1;SDS_P2;PMS_P1;PMS_P2;Temp;Humidity;BMP_temperature;BMP_pressure;BME280_temperature;BME280_humidity;BME280_pressure;Samples;Min_cycle;Max_cycle;Signal;HPM_P1;HPM_P2
2022/09/12 00:02:03;;;;;;;14.13;11.97;;;;;;;12.28;100.00;98481.51;1644249;85;21509;-74
2022/09/12 00:04:32;;;;;;;22.32;12.80;;;;;;;12.25;100.00;98480.84;1672535;85;21062;-74
2022/09/12 00:07:01;;;;;;;13.83;11.85;;;;;;;12.23;100.00;98480.39;1659223;85;21545;-73
2022/09/12 00:09:28;;;;;;;16.17;12.60;;;;;;;12.20;100.00;98476.97;1677479;84;21145;-74
2022/09/12 00:12:00;;;;;;;16.12;12.93;;;;;;;12.19;100.00;98475.37;1694075;84;20920;-72
2022/09/12 00:14:31;;;;;;;17.10;12.63;;;;;;;12.18;100.00;98475.14;1682410;84;21622;-73
2022/09/12 00:17:02;;;;;;;13.10;11.12;;;;;;;12.17;100.00;98479.05;1673271;84;21049;-72
2022/09/12 00:19:38;;;;;;;13.68;10.78;;;;;;;12.16;100.00;98468.62;1694365;84;21032;-73
2022/09/12 00:22:11;;;;;;;12.93;10.05;;;;;;;12.16;100.00;98474.70;1637447;84;21041;-73
2022/09/12 00:24:46;;;;;;;;;;;;;;;12.15;100.00;98479.97;1670638;84;21198;-72
2022/09/12 00:27:19;;;;;;;11.55;9.55;;;;;;;12.12;100.00;98480.12;1689180;84;20127;-73
2022/09/12 00:29:51;;;;;;;12.63;9.48;;;;;;;12.10;100.00;98482.44;1654556;84;21625;-73
2022/09/12 00:32:17;;;;;;;14.83;9.30;;;;;;;12.08;100.00;98477.06;1695301;84;20913;-73
2022/09/12 00:34:47;;;;;;;11.43;9.18;;;;;;;12.08;100.00;98477.06;1688379;84;21565;-74
2022/09/12 00:37:16;;;;;;;14.35;8.78;;;;;;;12.05;100.00;98478.56;1671314;84;20965;-73
2022/09/12 00:39:47;;;;;;;11.85;8.23;;;;;;;12.05;100.00;98476.39;1690492;84;20949;-73
2022/09/12 00:42:14;;;;;;;10.10;7.85;;;;;;;12.06;100.00;98473.28;1686605;84;21476;-73
2022/09/12 00:44:46;;;;;;;11.65;7.72;;;;;;;12.06;100.00;98473.28;1677096;85;20965;-74
2022/09/12 00:47:32;;;;;;;10.55;7.45;;;;;;;12.06;100.00;98472.48;1698093;84;21780;-73
2022/09/12 00:50:07;;;;;;;9.15;7.65;;;;;;;12.06;100.00;98471.91;1686352;84;20930;-74
2022/09/12 00:52:44;;;;;;;12.13;7.28;;;;;;;12.04;100.00;98470.08;1636069;85;21701;-72
2022/09/12 00:55:16;;;;;;;13.98;7.72;;;;;;;12.04;100.00;98467.33;1676308;84;20953;-73
2022/09/12 00:58:03;;;;;;;8.73;7.70;;;;;;;12.04;100.00;98462.41;1676489;84;21120;-72
2022/09/12 01:00:33;;;;;;;8.13;6.70;;;;;;;12.02;100.00;98464.70;1635804;86;21196;-72
2022/09/12 01:03:05;;;;;;;7.55;6.75;;;;;;;12.03;100.00;98469.86;1616604;87;21068;-72
2022/09/12 01:05:43;;;;;;;9.70;6.65;;;;;;;12.01;100.00;98460.36;1675935;84;20921;-73
2022/09/12 01:08:10;;;;;;;15.10;6.97;;;;;;;12.01;100.00;98469.98;1691148;84;21023;-72
2022/09/12 01:10:39;;;;;;;9.28;6.70;;;;;;;12.02;100.00;98463.33;1689578;84;21012;-72
2022/09/12 01:13:08;;;;;;;7.58;6.78;;;;;;;12.01;100.00;98462.53;1691779;84;21233;-72
2022/09/12 01:15:40;;;;;;;8.08;6.37;;;;;;;12.00;100.00;98463.69;1680175;84;21540;-72
2022/09/12 01:18:54;;;;;;;11.75;6.05;;;;;;;12.00;100.00;98458.76;1682063;84;20918;-72
2022/09/12 01:22:00;;;;;;;8.80;5.17;;;;;;;11.97;100.00;98466.34;1686309;84;20949;-71
2022/09/12 01:25:04;;;;;;;6.87;4.92;;;;;;;11.93;100.00;98465.44;1669279;83;21062;-71
2022/09/12 01:28:06;;;;;;;5.97;4.85;;;;;;;11.90;100.00;98464.19;1684121;84;21131;-73
2022/09/12 01:33:48;;;;;;;8.98;4.50;;;;;;;11.93;100.00;98468.98;1877292;75;22663;-73
2022/09/12 01:36:29;;;;;;;8.33;3.17;;;;;;;11.88;100.00;98472.78;1842302;76;20832;-72
2022/09/12 01:39:04;;;;;;;2.30;1.60;;;;;;;11.85;100.00;98465.23;1816547;77;20878;-72
2022/09/12 01:41:59;;;;;;;1.00;0.90;;;;;;;11.79;100.00;98464.46;1804186;76;21515;-71
2022/09/12 01:45:03;;;;;;;1.22;1.00;;;;;;;11.63;100.00;98464.94;1823718;76;21016;-70
2022/09/12 01:47:49;;;;;;;1.87;1.10;;;;;;;11.45;100.00;98472.69;1846734;76;20963;-69
2022/09/12 01:50:35;;;;;;;0.62;0.53;;;;;;;11.33;100.00;98469.97;1820161;76;21008;-69
2022/09/12 01:53:10;;;;;;;0.70;0.65;;;;;;;11.23;100.00;98473.41;1821920;77;20887;-69
2022/09/12 01:55:45;;;;;;;2.40;0.90;;;;;;;11.16;100.00;98473.20;1833720;76;20899;-70
2022/09/12 01:58:17;;;;;;;0.62;0.62;;;;;;;11.10;100.00;98470.45;1847979;77;20943;-70
2022/09/12 02:01:09;;;;;;;3.65;0.90;;;;;;;11.05;100.00;98469.31;1810678;77;20946;-69
2022/09/12 02:04:16;;;;;;;1.37;0.85;;;;;;;10.99;100.00;98465.77;1848669;76;20871;-69
2022/09/12 02:06:51;;;;;;;0.85;0.47;;;;;;;10.90;100.00;98463.97;1863829;77;21097;-71
2022/09/12 02:09:29;;;;;;;0.40;0.40;;;;;;;10.82;100.00;98469.01;1845807;76;21412;-72
2022/09/12 02:12:01;;;;;;;1.65;0.80;;;;;;;10.77;100.00;98463.74;1859957;76;20903;-71
2022/09/12 02:14:50;;;;;;;1.37;0.50;;;;;;;10.74;100.00;98460.88;1850790;76;20958;-71
2022/09/12 02:17:25;;;;;;;1.25;0.85;;;;;;;10.71;100.00;98460.20;1861361;76;20891;-73
2022/09/12 02:20:06;;;;;;;0.72;0.60;;;;;;;10.68;100.00;98458.94;1851394;76;21154;-72
2022/09/12 02:22:35;;;;;;;0.95;0.50;;;;;;;10.65;100.00;98457.45;1858377;76;20971;-72
2022/09/12 02:25:06;;;;;;;1.82;0.72;;;;;;;10.63;100.00;98463.28;1851582;76;20908;-72
2022/09/12 02:27:48;;;;;;;0.60;0.60;;;;;;;10.61;100.00;98457.33;1861271;76;20934;-72
2022/09/12 02:30:21;;;;;;;5.83;2.37;;;;;;;10.61;100.00;98460.64;1853577;76;20896;-72
2022/09/12 02:33:05;;;;;;;3.05;0.70;;;;;;;10.58;100.00;98453.89;1806217;76;21140;-72
2022/09/12 02:35:56;;;;;;;1.00;0.90;;;;;;;10.50;100.00;98455.60;1789308;79;21448;-71
2022/09/12 02:38:29;;;;;;;1.60;0.62;;;;;;;10.46;100.00;98460.73;1785579;79;21018;-71
2022/09/12 02:40:56;;;;;;;2.02;0.80;;;;;;;10.44;100.00;98459.70;1811683;78;20990;-71
2022/09/12 02:43:25;;;;;;;1.05;0.70;;;;;;;10.40;100.00;98458.79;1823341;78;20919;-71
2022/09/12 02:45:56;;;;;;;0.55;0.55;;;;;;;10.39;100.00;98459.96;1820099;78;21233;-71
2022/09/12 02:48:34;;;;;;;1.40;0.60;;;;;;;10.37;100.00;98464.98;1752713;80;20932;-71
2022/09/12 02:51:01;;;;;;;1.35;0.42;;;;;;;10.36;100.00;98464.75;1809505;78;20966;-72
2022/09/12 02:53:32;;;;;;;0.50;0.47;;;;;;;10.36;100.00;98464.75;1777000;78;20955;-72
2022/09/12 02:56:02;;;;;;;0.93;0.55;;;;;;;10.34;100.00;98471.16;1784698;79;21013;-72
2022/09/12 02:58:39;;;;;;;4.58;0.60;;;;;;;10.33;100.00;98472.30;1792432;78;20911;-71
2022/09/12 03:01:34;;;;;;;0.60;0.50;;;;;;;10.30;100.00;98471.60;1825544;78;20899;-71
2022/09/12 03:04:27;;;;;;;0.57;0.40;;;;;;;10.29;100.00;98469.20;1825810;78;20966;-71
2022/09/12 03:07:34;;;;;;;1.95;0.37;;;;;;;10.28;100.00;98475.25;1775694;79;20986;-74
2022/09/12 03:10:45;;;;;;;4.33;1.10;;;;;;;10.27;100.00;98472.28;1798886;78;21539;-72
2022/09/12 03:13:35;;;;;;;3.98;1.10;;;;;;;10.25;100.00;98474.56;1789428;80;21158;-73
2022/09/12 03:16:30;;;;;;;0.98;0.78;;;;;;;10.24;100.00;98466.10;1822711;78;20892;-73
2022/09/12 03:19:26;;;;;;;0.72;0.50;;;;;;;10.20;100.00;98470.66;1757827;80;21499;-73
2022/09/12 03:22:14;;;;;;;0.68;0.65;;;;;;;10.19;100.00;98471.77;1786357;79;20890;-72
2022/09/12 03:24:52;;;;;;;2.25;0.40;;;;;;;10.17;100.00;98474.05;1782410;79;21511;-72
2022/09/12 03:27:29;;;;;;;0.80;0.30;;;;;;;10.16;100.00;98471.88;1790044;79;21402;-72
2022/09/12 03:29:57;;;;;;;0.45;0.40;;;;;;;10.16;100.00;98471.88;1810814;78;20840;-71
2022/09/12 03:32:48;;;;;;;1.52;0.50;;;;;;;10.17;100.00;98476.80;1817290;78;21466;-71
2022/09/12 03:35:20;;;;;;;4.23;0.60;;;;;;;10.19;100.00;98471.77;1720967;82;20951;-73
2022/09/12 03:37:55;;;;;;;2.42;0.47;;;;;;;10.20;100.00;98468.72;1794593;77;20880;-73
2022/09/12 03:40:28;;;;;;;3.30;0.50;;;;;;;10.21;100.00;98468.15;1854790;76;21112;-72
2022/09/12 03:43:00;;;;;;;2.50;0.40;;;;;;;10.22;100.00;98468.37;1860565;76;20816;-70
2022/09/12 03:45:31;;;;;;;2.47;0.45;;;;;;;10.22;100.00;98475.23;1850392;76;20852;-71
2022/09/12 03:48:07;;;;;;;1.70;0.40;;;;;;;10.21;100.00;98477.17;1860691;77;20867;-70
2022/09/12 03:50:43;;;;;;;1.00;0.40;;;;;;;10.20;100.00;98476.95;1859237;76;21450;-70
2022/09/12 03:53:11;;;;;;;0.60;0.50;;;;;;;10.21;100.00;98479.12;1843237;77;21229;-72
2022/09/12 03:55:49;;;;;;;3.83;0.72;;;;;;;10.21;100.00;98477.75;1807820;76;20961;-72
2022/09/12 03:58:20;;;;;;;3.12;0.55;;;;;;;10.23;100.00;98485.06;1856376;76;20918;-71
2022/09/12 04:00:49;;;;;;;0.65;0.40;;;;;;;10.22;100.00;98484.84;1823104;77;20931;-71
2022/09/12 04:03:19;;;;;;;4.30;0.70;;;;;;;10.19;100.00;98482.73;1850032;76;21435;-72
2022/09/12 04:05:53;;;;;;;2.87;0.80;;;;;;;10.16;100.00;98486.96;1812951;77;20974;-71
2022/09/12 04:08:23;;;;;;;3.17;0.60;;;;;;;10.15;100.00;98490.04;1851760;76;20875;-77
2022/09/12 04:11:07;;;;;;;0.70;0.70;;;;;;;10.14;100.00;98481.58;1847567;76;20960;-73
2022/09/12 04:13:37;;;;;;;;;;;;;;;10.12;100.00;98481.92;1858081;76;20918;-71
2022/09/12 04:16:06;;;;;;;1.30;0.78;;;;;;;10.12;100.00;98491.52;1853125;76;20111;-75
2022/09/12 04:18:37;;;;;;;4.97;0.93;;;;;;;10.08;100.00;98487.05;1822867;78;21306;-72
2022/09/12 04:21:10;;;;;;;2.00;1.20;;;;;;;10.06;100.00;98486.58;1822840;77;20868;-73
2022/09/12 04:23:40;;;;;;;2.25;0.85;;;;;;;10.05;100.00;98486.34;1818422;77;21082;-73
2022/09/12 04:26:10;;;;;;;;;;;;;;;10.05;100.00;98484.98;1828870;77;21570;-73
2022/09/12 04:28:37;;;;;;;3.00;0.78;;;;;;;10.05;100.00;98484.98;1816748;77;20088;-72
2022/09/12 04:31:16;;;;;;;0.80;0.70;;;;;;;10.05;100.00;98484.98;1823383;77;21455;-72
2022/09/12 04:33:51;;;;;;;2.15;0.80;;;;;;;10.06;100.00;98490.70;1827562;77;20963;-72
2022/09/12 04:36:23;;;;;;;1.80;1.02;;;;;;;10.06;100.00;98487.95;1803605;78;21471;-72
2022/09/12 04:38:59;;;;;;;2.00;1.10;;;;;;;10.07;100.00;98488.98;1818020;78;20903;-72
2022/09/12 04:41:27;;;;;;;3.98;0.98;;;;;;;10.10;100.00;98493.80;1822760;77;20864;-72
2022/09/12 04:44:01;;;;;;;1.67;0.80;;;;;;;10.10;100.00;98488.88;1808671;78;20951;-72
2022/09/12 04:46:32;;;;;;;1.45;0.93;;;;;;;10.12;100.00;98486.03;1822976;78;20955;-72
2022/09/12 04:49:01;;;;;;;1.42;0.85;;;;;;;10.16;100.00;98491.64;1823498;77;21106;-72
2022/09/12 04:51:34;;;;;;;;;;;;;;;10.18;100.00;98490.73;1829376;77;20951;-72
2022/09/12 04:54:05;;;;;;;0.78;0.72;;;;;;;10.22;100.00;98488.95;1822322;78;20107;-72
2022/09/12 04:56:43;;;;;;;1.87;0.70;;;;;;;10.25;100.00;98495.12;1824664;77;21303;-72
2022/09/12 04:59:05;;;;;;;3.00;0.93;;;;;;;10.29;100.00;98495.25;1823003;77;20985;-72
2022/09/12 05:01:36;;;;;;;1.37;0.85;;;;;;;10.36;100.00;98494.13;1794468;79;20939;-71
2022/09/12 05:04:11;;;;;;;6.55;1.02;;;;;;;10.43;100.00;98494.34;1766809;80;20918;-71
2022/09/12 05:06:46;;;;;;;1.17;0.78;;;;;;;10.50;100.00;98498.13;1806871;78;21042;-70
2022/09/12 05:09:15;;;;;;;2.15;1.05;;;;;;;10.56;100.00;98492.66;1829190;77;21380;-70
2022/09/12 05:11:47;;;;;;;2.17;1.30;;;;;;;10.63;100.00;98487.98;1814951;77;21414;-71
2022/09/12 05:14:16;;;;;;;;;;;;;;;10.71;100.00;98487.64;1825434;77;20876;-71
2022/09/12 05:16:45;;;;;;;3.40;1.40;;;;;;;10.80;100.00;98492.45;1817963;77;20088;-71
2022/09/12 05:19:22;;;;;;;3.02;1.25;;;;;;;10.88;100.00;98494.29;1806561;77;21538;-72
2022/09/12 05:21:50;;;;;;;1.17;1.00;;;;;;;10.99;100.00;98493.23;1823610;78;21158;-71
2022/09/12 05:24:27;;;;;;;6.70;1.30;;;;;;;11.06;100.00;98498.38;1804993;78;20971;-71
2022/09/12 05:26:56;;;;;;;4.12;2.08;;;;;;;11.14;100.00;98491.16;1803335;78;21388;-71
2022/09/12 05:29:25;;;;;;;3.62;1.75;;;;;;;11.19;100.00;98497.80;1820521;77;20875;-71
2022/09/12 05:31:58;;;;;;;4.83;1.87;;;;;;;11.24;100.00;98492.87;1818804;77;21040;-71
2022/09/12 05:34:29;;;;;;;2.52;2.15;;;;;;;11.25;100.00;98490.36;1805869;77;20899;-71
2022/09/12 05:37:02;;;;;;;1.87;1.62;;;;;;;11.29;100.00;98487.72;1823143;77;21494;-71
2022/09/12 05:39:28;;;;;;;4.10;2.00;;;;;;;11.30;100.00;98490.69;1823244;78;20924;-71
2022/09/12 05:42:03;;;;;;;3.75;1.87;;;;;;;11.29;100.00;98492.41;1800927;78;20877;-70
2022/09/12 05:44:35;;;;;;;3.02;2.02;;;;;;;11.28;100.00;98485.31;1820538;77;21425;-71
2022/09/12 05:47:06;;;;;;;2.17;1.80;;;;;;;11.31;100.00;98484.63;1802451;78;21381;-71
2022/09/12 05:49:37;;;;;;;2.58;2.20;;;;;;;11.34;100.00;98486.11;1822644;77;20825;-71
2022/09/12 05:52:08;;;;;;;3.90;2.05;;;;;;;11.38;100.00;98489.77;1803051;77;21677;-71
2022/09/12 05:54:46;;;;;;;4.42;2.00;;;;;;;11.42;100.00;98482.43;1823016;77;20915;-71
2022/09/12 05:57:07;;;;;;;5.15;2.45;;;;;;;11.43;100.00;98491.47;1819821;78;20864;-70
2022/09/12 05:59:40;;;;;;;4.60;2.15;;;;;;;11.40;100.00;98483.34;1822272;77;20896;-71
2022/09/12 06:02:11;;;;;;;4.92;2.45;;;;;;;11.40;100.00;98481.97;1822999;77;20890;-70
2022/09/12 06:04:39;;;;;;;3.02;2.37;;;;;;;11.39;100.00;98482.32;1822961;77;20920;-70
2022/09/12 06:07:11;;;;;;;4.87;2.10;;;;;;;11.41;100.00;98486.33;1823029;77;21464;-71
2022/09/12 06:09:46;;;;;;;2.12;1.82;;;;;;;11.47;100.00;98480.81;1819776;78;20900;-70
2022/09/12 06:12:18;;;;;;;3.98;2.50;;;;;;;11.55;100.00;98482.59;1828680;77;21564;-71
2022/09/12 06:14:54;;;;;;;6.47;2.27;;;;;;;11.58;100.00;98479.73;1823026;77;20933;-71
2022/09/12 06:17:23;;;;;;;2.15;1.95;;;;;;;11.57;100.00;98476.75;1822990;77;20868;-71
2022/09/12 06:19:52;;;;;;;3.85;1.95;;;;;;;11.56;100.00;98486.95;1823308;78;20919;-71
2022/09/12 06:22:26;;;;;;;4.75;2.42;;;;;;;11.54;100.00;98487.90;1823652;78;21435;-71
2022/09/12 06:24:58;;;;;;;5.90;2.70;;;;;;;11.52;100.00;98483.89;1801218;78;20881;-71
2022/09/12 06:27:29;;;;;;;2.95;2.45;;;;;;;11.51;100.00;98481.72;1821670;77;21059;-71
2022/09/12 06:30:04;;;;;;;3.58;2.60;;;;;;;11.51;100.00;98483.67;1805066;78;20982;-71
2022/09/12 06:32:34;;;;;;;7.33;3.12;;;;;;;11.53;100.00;98482.75;1823130;77;20904;-71
2022/09/12 06:35:05;;;;;;;4.80;2.75;;;;;;;11.56;100.00;98480.08;1819915;77;21514;-71
2022/09/12 06:37:34;;;;;;;4.80;2.65;;;;;;;11.60;100.00;98484.30;1819632;77;21230;-71
2022/09/12 06:40:02;;;;;;;3.58;2.87;;;;;;;11.63;100.00;98482.23;1822273;77;21486;-71
2022/09/12 06:42:29;;;;;;;6.00;2.45;;;;;;;11.69;100.00;98483.59;1822926;77;20888;-71
2022/09/12 06:45:01;;;;;;;2.90;2.42;;;;;;;11.76;100.00;98485.75;1823404;77;21141;-71
2022/09/12 06:47:30;;;;;;;3.60;2.30;;;;;;;11.83;100.00;98484.03;1820465;77;20884;-71
2022/09/12 06:50:04;;;;;;;7.37;2.50;;;;;;;11.92;100.00;98485.84;1823396;77;21574;-71
2022/09/12 06:52:30;;;;;;;5.97;2.00;;;;;;;11.99;100.00;98491.54;1821493;77;20927;-71
2022/09/12 06:55:02;;;;;;;2.25;2.00;;;;;;;12.03;100.00;98482.23;1823378;78;21353;-71
2022/09/12 06:57:41;;;;;;;2.98;2.00;;;;;;;12.04;100.00;98486.59;1831977;78;20904;-71
2022/09/12 07:00:11;;;;;;;4.53;1.50;;;;;;;12.08;100.00;98488.06;1823407;78;20895;-71
2022/09/12 07:02:45;;;;;;;2.05;1.70;;;;;;;12.08;100.00;98488.06;1805066;77;21086;-71
2022/09/12 07:05:14;;;;;;;1.87;1.67;;;;;;;12.07;100.00;98491.97;1822731;78;20920;-71
2022/09/12 07:07:47;;;;;;;3.20;1.62;;;;;;;12.04;100.00;98497.59;1802358;78;20937;-71
2022/09/12 07:10:14;;;;;;;3.02;1.80;;;;;;;12.04;100.00;98503.67;1820029;77;20988;-71
2022/09/12 07:12:48;;;;;;;3.33;1.75;;;;;;;12.06;100.00;98498.62;1800791;78;20891;-71
2022/09/12 07:15:16;;;;;;;3.75;1.77;;;;;;;12.08;100.00;98496.31;1822772;78;21161;-71
2022/09/12 07:17:43;;;;;;;3.50;1.60;;;;;;;12.11;100.00;98493.66;1822796;77;20981;-72
2022/09/12 07:20:15;;;;;;;2.50;1.80;;;;;;;12.13;100.00;98496.06;1819670;77;20988;-72
2022/09/12 07:22:44;;;;;;;1.40;1.27;;;;;;;12.12;100.00;98493.09;1823393;77;20899;-72
2022/09/12 07:25:12;;;;;;;2.40;1.60;;;;;;;12.11;100.00;98492.28;1814587;78;20928;-72
2022/09/12 07:27:45;;;;;;;3.70;1.50;;;;;;;12.11;100.00;98499.16;1818002;77;21659;-72
2022/09/12 07:30:16;;;;;;;5.60;1.82;;;;;;;12.14;100.00;98494.88;1816669;77;20876;-72
2022/09/12 07:32:44;;;;;;;2.85;1.62;;;;;;;12.19;100.00;98492.67;1823251;77;20947;-72
2022/09/12 07:35:16;;;;;;;1.90;1.27;;;;;;;12.30;100.00;98498.47;1821321;78;20912;-72
2022/09/12 07:37:45;;;;;;;3.80;1.30;;;;;;;12.40;100.00;98496.58;1823400;77;21023;-73
2022/09/12 07:40:11;;;;;;;4.45;1.30;;;;;;;12.45;100.00;98489.44;1822487;77;21255;-72
2022/09/12 07:42:40;;;;;;;2.50;1.30;;;;;;;12.47;100.00;98494.59;1818174;78;21543;-74
2022/09/12 07:45:18;;;;;;;4.53;1.35;;;;;;;12.43;100.00;98498.63;1822818;78;20864;-73
2022/09/12 07:47:45;;;;;;;3.27;1.55;;;;;;;12.38;100.00;98492.00;1821405;77;20937;-72
2022/09/12 07:50:17;;;;;;;2.02;1.37;;;;;;;12.40;100.00;98491.08;1817747;77;20881;-73
2022/09/12 07:52:52;;;;;;;2.62;1.50;;;;;;;12.45;100.00;98488.64;1774633;78;20821;-76
2022/09/12 07:55:20;;;;;;;3.15;1.30;;;;;;;12.53;100.00;98500.86;1820444;78;21010;-74
2022/09/12 07:57:51;;;;;;;2.10;1.25;;;;;;;12.62;100.00;98493.01;1817915;78;20925;-73
2022/09/12 08:00:18;;;;;;;3.95;1.42;;;;;;;12.71;100.00;98493.03;1817719;78;21065;-78
2022/09/12 08:02:51;;;;;;;2.55;1.32;;;;;;;12.76;100.00;98491.97;1807753;77;20992;-76
2022/09/12 08:05:22;;;;;;;5.17;2.02;;;;;;;12.76;100.00;98488.63;1751600;80;21121;-75
2022/09/12 08:07:51;;;;;;;2.65;1.82;;;;;;;12.77;100.00;98489.44;1816637;77;20875;-74
2022/09/12 08:10:19;;;;;;;1.37;1.20;;;;;;;12.81;100.00;98494.45;1817817;78;20934;-74
2022/09/12 08:12:45;;;;;;;2.55;1.00;;;;;;;12.84;100.00;98491.78;1815570;77;21651;-76
2022/09/12 08:15:15;;;;;;;1.67;0.95;;;;;;;12.83;100.00;98493.52;1813092;77;21004;-74
2022/09/12 08:17:43;;;;;;;2.87;1.00;;;;;;;12.80;100.00;98488.72;1805805;77;21148;-77
2022/09/12 08:20:12;;;;;;;0.98;0.85;;;;;;;12.77;100.00;98492.19;1804374;78;21540;-78
2022/09/12 08:22:39;;;;;;;1.27;0.82;;;;;;;12.79;100.00;98491.25;1805779;77;21042;-84
2022/09/12 08:25:08;;;;;;;0.80;0.80;;;;;;;12.80;100.00;98493.66;1818457;77;20884;-78
2022/09/12 08:27:35;;;;;;;2.35;0.95;;;;;;;12.85;100.00;98489.83;1813616;78;20932;-73
2022/09/12 08:30:05;;;;;;;0.60;0.60;;;;;;;12.93;100.00;98491.61;1831691;77;21031;-73
2022/09/12 08:32:35;;;;;;;1.00;0.85;;;;;;;13.03;100.00;98492.44;1813780;77;21487;-72
2022/09/12 08:35:02;;;;;;;0.70;0.70;;;;;;;13.10;100.00;98490.44;1844759;77;20999;-73
2022/09/12 08:37:30;;;;;;;1.32;0.80;;;;;;;13.13;100.00;98491.90;1840595;77;20901;-80
2022/09/12 08:39:58;;;;;;;1.40;0.72;;;;;;;13.14;100.00;98490.74;1814964;77;20907;-75
2022/09/12 08:42:47;;;;;;;2.45;1.20;;;;;;;13.14;100.00;98491.32;1844473;77;21136;-76
2022/09/12 08:45:36;;;;;;;4.60;0.72;;;;;;;13.15;100.00;98490.96;1841807;77;20859;-69
2022/09/12 08:48:05;;;;;;;2.95;0.40;;;;;;;13.14;100.00;98492.70;1846071;77;20962;-70
2022/09/12 08:50:38;;;;;;;0.88;0.40;;;;;;;13.16;100.00;98493.97;1799648;77;20918;-71
2022/09/12 08:53:26;;;;;;;0.88;0.75;;;;;;;13.18;100.00;98493.03;1833717;77;26956;-72
2022/09/12 08:56:08;;;;;;;0.50;0.50;;;;;;;13.21;100.00;98488.19;1839724;77;20943;-72
2022/09/12 08:58:41;;;;;;;0.40;0.40;;;;;;;13.19;100.00;98486.94;1829888;77;20935;-71
2022/09/12 09:01:25;;;;;;;2.85;0.40;;;;;;;13.20;100.00;98494.85;1792099;78;21522;-71
2022/09/12 09:04:30;;;;;;;0.72;0.40;;;;;;;13.26;100.00;98495.38;1816086;78;20911;-70
2022/09/12 09:07:27;;;;;;;0.50;0.40;;;;;;;13.37;98.73;98491.45;1815549;77;20931;-77
2022/09/12 09:10:06;;;;;;;1.30;0.50;;;;;;;13.42;98.63;98493.94;1789372;78;21431;-69
2022/09/12 09:13:13;;;;;;;0.28;0.28;;;;;;;13.47;98.03;98495.03;1810214;78;20955;-70
2022/09/12 09:15:58;;;;;;;1.07;0.30;;;;;;;13.47;97.19;98492.27;1808047;78;20988;-70
2022/09/12 09:18:31;;;;;;;0.40;0.40;;;;;;;13.46;96.42;98494.23;1818970;78;20967;-70
2022/09/12 09:21:17;;;;;;;1.85;0.33;;;;;;;13.46;97.17;98497.57;1808124;78;20832;-70
2022/09/12 09:23:54;;;;;;;0.40;0.20;;;;;;;13.48;96.20;98498.01;1781036;80;21290;-71
2022/09/12 09:26:35;;;;;;;1.98;1.30;;;;;;;13.48;95.73;98502.14;1743174;82;20988;-71
2022/09/12 09:29:15;;;;;;;3.12;0.82;;;;;;;13.55;96.43;98499.55;1746886;81;20937;-70
2022/09/12 09:31:47;;;;;;;1.42;0.50;;;;;;;13.62;94.51;98501.08;1744357;81;20947;-70
2022/09/12 09:34:24;;;;;;;1.55;0.82;;;;;;;13.67;93.24;98509.07;1772242;81;21440;-70
2022/09/12 09:37:12;;;;;;;1.80;0.78;;;;;;;13.67;93.10;98506.89;1740965;81;20887;-70
2022/09/12 09:39:56;;;;;;;1.25;0.70;;;;;;;13.64;92.43;98501.52;1770457;80;21109;-70
2022/09/12 09:42:52;;;;;;;1.10;0.53;;;;;;;13.62;91.08;98500.28;1734955;81;20907;-70
2022/09/12 09:45:23;;;;;;;2.17;0.88;;;;;;;13.54;90.42;98504.27;1754554;81;21367;-71
2022/09/12 09:48:00;;;;;;;;;;;;;;;13.44;90.62;98504.02;1754833;81;20978;-71
2022/09/12 09:50:28;;;;;;;0.93;0.40;;;;;;;13.35;90.67;98505.59;1731278;81;20094;-71
2022/09/12 09:53:03;;;;;;;0.68;0.60;;;;;;;13.25;91.14;98507.56;1747814;80;21043;-71
2022/09/12 09:55:39;;;;;;;0.50;0.40;;;;;;;13.19;91.67;98507.61;1771895;80;21003;-72
2022/09/12 09:58:12;;;;;;;0.40;0.40;;;;;;;13.13;93.00;98507.63;1764144;81;21661;-71
2022/09/12 10:00:42;;;;;;;2.30;0.30;;;;;;;13.07;93.26;98519.50;1764328;81;21018;-72
2022/09/12 10:03:25;;;;;;;0.95;0.33;;;;;;;13.05;93.42;98516.88;1811179;79;21309;-72
2022/09/12 10:06:02;;;;;;;0.98;0.62;;;;;;;13.05;93.48;98519.64;1807015;78;21478;-71
2022/09/12 10:08:35;;;;;;;3.08;0.62;;;;;;;13.08;93.63;98516.97;1764765;80;20999;-71
2022/09/12 10:11:18;;;;;;;1.90;0.78;;;;;;;13.05;93.11;98515.50;1748137;80;21162;-71
2022/09/12 10:13:57;;;;;;;1.52;0.70;;;;;;;13.03;93.57;98518.62;1787475;79;21126;-71
2022/09/12 10:16:33;;;;;;;0.53;0.37;;;;;;;13.05;94.41;98522.39;1778070;80;21154;-72
2022/09/12 10:19:02;;;;;;;0.90;0.30;;;;;;;13.12;94.10;98521.19;1791926;80;21007;-71
2022/09/12 10:21:40;;;;;;;0.60;0.40;;;;;;;13.20;94.33;98519.66;1795389;80;21535;-71
2022/09/12 10:24:27;;;;;;;1.45;0.50;;;;;;;13.28;93.77;98525.33;1793816;80;22163;-72
2022/09/12 10:27:17;;;;;;;0.55;0.55;;;;;;;13.32;93.39;98523.43;1779360;79;21508;-72
2022/09/12 10:29:54;;;;;;;0.50;0.30;;;;;;;13.32;93.26;98517.34;1781307;80;21239;-71
2022/09/12 10:32:39;;;;;;;0.45;0.33;;;;;;;13.31;94.13;98519.08;1765314;80;21032;-71
2022/09/12 10:35:17;;;;;;;0.50;0.30;;;;;;;13.31;93.96;98519.88;1799521;78;20959;-71
2022/09/12 10:38:01;;;;;;;0.45;0.35;;;;;;;13.34;94.00;98523.88;1774148;79;21501;-71
2022/09/12 10:40:41;;;;;;;3.00;0.80;;;;;;;13.34;93.63;98521.12;1787444;80;21089;-71
2022/09/12 10:43:28;;;;;;;0.68;0.40;;;;;;;13.31;93.44;98517.12;1767088;80;22016;-71
2022/09/12 10:45:58;;;;;;;1.17;0.60;;;;;;;13.29;94.54;98521.39;1778979;78;21529;-71
2022/09/12 10:48:35;;;;;;;0.65;0.50;;;;;;;13.28;94.17;98521.20;1789613;80;22169;-71
2022/09/12 10:51:07;;;;;;;0.30;0.30;;;;;;;13.24;94.41;98517.56;1789109;80;20994;-72
2022/09/12 10:53:45;;;;;;;2.15;0.40;;;;;;;13.20;95.04;98514.14;1786881;79;21054;-71
2022/09/12 10:56:21;;;;;;;0.70;0.50;;;;;;;13.15;94.31;98521.27;1785907;79;20966;-71
2022/09/12 10:59:45;;;;;;;1.57;0.88;;;;;;;13.12;94.27;98521.19;1784567;80;21041;-71
2022/09/12 11:02:27;;;;;;;0.47;0.47;;;;;;;13.07;94.48;98525.59;1785278;80;21568;-71
2022/09/12 11:05:14;;;;;;;2.12;0.60;;;;;;;13.01;94.94;98522.88;1776953;79;21514;-72
2022/09/12 11:07:55;;;;;;;0.82;0.75;;;;;;;12.99;95.22;98525.19;1781267;79;21596;-71
2022/09/12 11:10:38;;;;;;;2.02;0.78;;;;;;;12.99;95.88;98532.08;1755939;80;21510;-71
2022/09/12 11:13:49;;;;;;;0.88;0.75;;;;;;;13.01;95.46;98533.33;1789619;79;21014;-71
2022/09/12 11:16:43;;;;;;;0.95;0.78;;;;;;;13.01;95.78;98536.66;1780175;79;21047;-71
2022/09/12 11:19:25;;;;;;;3.42;0.88;;;;;;;13.02;96.30;98539.05;1788422;79;20963;-71
2022/09/12 11:22:25;;;;;;;0.80;0.80;;;;;;;13.01;95.90;98542.97;1752659;80;21027;-71
2022/09/12 11:25:28;;;;;;;1.10;0.88;;;;;;;12.94;95.91;98545.55;1789056;80;21725;-71
2022/09/12 11:28:21;;;;;;;4.60;0.90;;;;;;;12.88;96.67;98549.72;1779365;80;21612;-71
2022/09/12 11:30:58;;;;;;;0.80;0.70;;;;;;;12.80;98.92;98550.69;1789065;79;21065;-71
2022/09/12 11:33:50;;;;;;;2.50;0.80;;;;;;;12.65;100.00;98552.30;1780181;80;21491;-70
2022/09/12 11:36:30;;;;;;;2.98;0.90;;;;;;;12.55;100.00;98550.06;1774673;79;21059;-71
2022/09/12 11:39:23;;;;;;;1.45;0.80;;;;;;;12.49;100.00;98555.02;1761065;79;21494;-70
2022/09/12 11:41:56;;;;;;;1.95;1.05;;;;;;;12.45;100.00;98551.38;1750795;80;21005;-75
2022/09/12 11:44:39;;;;;;;1.92;1.45;;;;;;;12.40;100.00;98548.88;1788520;79;20999;-74
2022/09/12 11:47:12;;;;;;;1.80;0.80;;;;;;;12.36;100.00;98551.30;1784142;79;20979;-74
2022/09/12 11:49:47;;;;;;;2.55;0.90;;;;;;;12.29;100.00;98551.91;1793671;78;21038;-74
2022/09/12 11:52:21;;;;;;;1.67;1.00;;;;;;;12.27;100.00;98547.33;1793996;79;21529;-74
2022/09/12 11:55:09;;;;;;;1.52;0.95;;;;;;;12.26;100.00;98547.67;1788970;79;21040;-75
2022/09/12 11:58:05;;;;;;;2.27;1.00;;;;;;;12.20;100.00;98548.50;1777165;78;21007;-74
2022/09/12 12:00:40;;;;;;;2.33;0.80;;;;;;;12.17;100.00;98549.20;1766222;78;21609;-70
2022/09/12 12:03:39;;;;;;;3.80;0.82;;;;;;;12.06;100.00;98550.88;1810350;78;21018;-70
2022/09/12 12:06:18;;;;;;;0.82;0.70;;;;;;;11.97;100.00;98555.72;1791465;79;21103;-70
2022/09/12 12:08:52;;;;;;;2.92;0.75;;;;;;;11.90;100.00;98556.31;1761965;79;20950;-71
2022/09/12 12:11:45;;;;;;;2.10;1.00;;;;;;;11.89;100.00;98555.52;1729255;80;21050;-70
2022/09/12 12:14:32;;;;;;;1.45;0.90;;;;;;;11.92;100.00;98562.27;1768976;79;21018;-70